Weather at Kalymnos Airport

Public forecast

Using degrees Celsius for public forecast. Weather courtesy of forecast.io.

Closest aviation weather report (METAR) to Kalymnos Airport

Closest report is Kos Airport, 12.5 nm (23.2 km) SE. Retrieved 2021/01/28 00:20 UTC (18 minutes ago):

LGKO 280020Z 32016G26KT 9999 FEW016CB BKN025 06/03 Q1009

Closest aviation forecast (TAF) to Kalymnos Airport

Closest forecast is Kos Airport, 12.5 nm (23.2 km) SE. Retrieved 2021-01-28 00:12 UTC (26 minutes ago):

TAF LGKO 272300Z 2800/2824 30020G30KT 9999 FEW018TCU SCT020 BECMG 2803/2805 33015KT PROB40 TEMPO 2800/2812 5000 RA FEW016TCU BKN020